createdAt,value
2018-11-26T00:00:33.915Z,5.20
2018-11-26T00:01:37.423Z,5.20
2018-11-26T00:02:40.878Z,5.20
2018-11-26T00:03:44.376Z,5.30
2018-11-26T00:04:47.875Z,5.30
2018-11-26T00:05:51.333Z,5.20
2018-11-26T00:06:54.771Z,5.30
2018-11-26T00:07:58.229Z,5.30
2018-11-26T00:09:01.727Z,5.30
2018-11-26T00:10:16.611Z,5.30
2018-11-26T00:11:37.228Z,5.30
2018-11-26T00:12:40.653Z,5.30
2018-11-26T00:13:44.096Z,5.30
2018-11-26T00:14:47.529Z,5.30
2018-11-26T00:15:50.978Z,5.30
2018-11-26T00:16:54.469Z,5.30
2018-11-26T00:17:57.899Z,5.30
2018-11-26T00:19:01.332Z,5.30
2018-11-26T00:20:05.590Z,5.30
2018-11-26T00:21:09.021Z,5.30
2018-11-26T00:22:12.477Z,5.20
2018-11-26T00:23:16.054Z,5.20
2018-11-26T00:24:19.524Z,5.20
2018-11-26T00:25:22.958Z,5.20
2018-11-26T00:26:26.424Z,5.20
2018-11-26T00:27:29.853Z,5.20
2018-11-26T00:28:33.320Z,5.20
2018-11-26T00:29:36.794Z,5.30
2018-11-26T00:30:40.233Z,5.30
2018-11-26T00:31:43.757Z,5.20
2018-11-26T00:32:47.197Z,5.10
2018-11-26T00:33:50.660Z,5.10
2018-11-26T00:34:54.128Z,5.10
2018-11-26T00:35:57.576Z,5.10
2018-11-26T00:37:01.032Z,5.10
2018-11-26T00:38:04.489Z,5.20
2018-11-26T00:39:10.532Z,5.20
2018-11-26T00:40:13.988Z,5.20
2018-11-26T00:41:17.431Z,5.20
2018-11-26T00:42:20.888Z,5.20
2018-11-26T00:43:24.309Z,5.20
2018-11-26T00:44:27.780Z,5.30
2018-11-26T00:45:31.228Z,5.30
2018-11-26T00:46:34.681Z,5.30
2018-11-26T00:47:38.140Z,5.30
2018-11-26T00:48:41.576Z,5.30
2018-11-26T00:49:45.038Z,5.30
2018-11-26T00:50:48.489Z,5.30
2018-11-26T00:51:51.923Z,5.30
2018-11-26T00:52:55.361Z,5.30
2018-11-26T00:53:58.813Z,5.30
2018-11-26T00:55:02.281Z,5.30
2018-11-26T00:56:06.078Z,5.30
2018-11-26T00:57:09.525Z,5.30
2018-11-26T00:58:12.973Z,5.30
2018-11-26T00:59:16.434Z,5.30
2018-11-26T01:00:20.157Z,5.30
2018-11-26T01:01:23.598Z,5.30
2018-11-26T01:02:27.028Z,5.30
2018-11-26T01:03:30.480Z,5.30
2018-11-26T01:04:33.949Z,5.30
2018-11-26T01:05:38.893Z,5.30
2018-11-26T01:06:42.341Z,5.30
2018-11-26T01:07:45.765Z,5.30
2018-11-26T01:08:49.276Z,5.30
2018-11-26T01:09:52.769Z,5.30
2018-11-26T01:10:56.220Z,5.30
2018-11-26T01:11:59.659Z,5.30
2018-11-26T01:13:03.173Z,5.30
2018-11-26T01:14:06.625Z,5.20
2018-11-26T01:15:10.121Z,5.10
2018-11-26T01:16:13.612Z,5.10
2018-11-26T01:17:17.085Z,5.00
2018-11-26T01:18:20.546Z,5.00
2018-11-26T01:19:24.010Z,5.00
2018-11-26T01:20:27.496Z,4.90
2018-11-26T01:21:30.934Z,4.90
2018-11-26T01:22:34.440Z,5.00
2018-11-26T01:23:37.900Z,4.90
2018-11-26T01:24:41.348Z,4.90
2018-11-26T01:25:44.844Z,4.80
2018-11-26T01:26:48.314Z,4.90
2018-11-26T01:27:51.741Z,4.90
2018-11-26T01:28:55.221Z,4.90
2018-11-26T01:29:58.689Z,4.90
2018-11-26T01:31:02.178Z,4.90
2018-11-26T01:32:05.717Z,4.90
2018-11-26T01:33:09.169Z,4.80
2018-11-26T01:34:12.628Z,4.80
2018-11-26T01:35:16.121Z,4.90
2018-11-26T01:36:19.561Z,4.90
2018-11-26T01:37:23.049Z,4.90
2018-11-26T01:38:26.509Z,4.90
2018-11-26T01:39:29.959Z,4.90
2018-11-26T01:40:38.650Z,5.00
2018-11-26T01:41:42.104Z,5.00
2018-11-26T01:42:45.592Z,5.00
2018-11-26T01:43:49.029Z,5.10
2018-11-26T01:44:52.585Z,5.10
2018-11-26T01:45:56.037Z,5.10
2018-11-26T01:46:59.530Z,5.20
2018-11-26T01:48:03.046Z,5.20
2018-11-26T01:49:06.521Z,5.20
2018-11-26T01:50:09.988Z,5.30
2018-11-26T01:51:13.476Z,5.20
2018-11-26T01:52:16.954Z,5.20
2018-11-26T01:53:20.381Z,5.30
2018-11-26T01:54:23.857Z,5.30
2018-11-26T01:55:27.316Z,5.30
2018-11-26T01:56:30.773Z,5.30
2018-11-26T01:57:34.204Z,5.30
2018-11-26T01:58:37.708Z,5.40
2018-11-26T01:59:41.156Z,5.40
2018-11-26T02:00:44.585Z,5.40
2018-11-26T02:01:48.076Z,5.40
2018-11-26T02:02:51.521Z,5.40
2018-11-26T02:03:54.984Z,5.40
2018-11-26T02:04:58.493Z,5.40
2018-11-26T02:06:01.937Z,5.30
2018-11-26T02:07:05.557Z,5.30
2018-11-26T02:08:09.009Z,5.30
2018-11-26T02:09:12.477Z,5.30
2018-11-26T02:10:17.873Z,5.30
2018-11-26T02:11:21.310Z,5.30
2018-11-26T02:12:24.798Z,5.30
2018-11-26T02:13:28.287Z,5.30
2018-11-26T02:14:31.765Z,5.30
2018-11-26T02:15:38.149Z,5.30
2018-11-26T02:16:41.597Z,5.20
2018-11-26T02:17:45.037Z,5.30
2018-11-26T02:18:48.499Z,5.30
2018-11-26T02:19:52.001Z,5.30
2018-11-26T02:20:55.473Z,5.30
2018-11-26T02:21:58.927Z,5.30
2018-11-26T02:23:02.397Z,5.30
2018-11-26T02:24:06.131Z,5.30
2018-11-26T02:25:09.785Z,5.30
2018-11-26T02:26:13.228Z,5.30
2018-11-26T02:27:16.725Z,5.30
2018-11-26T02:28:20.173Z,5.30
2018-11-26T02:29:23.662Z,5.30
2018-11-26T02:30:27.180Z,5.30
2018-11-26T02:31:30.678Z,5.30
2018-11-26T02:32:34.152Z,5.40
2018-11-26T02:33:37.597Z,5.40
2018-11-26T02:34:41.099Z,5.40
2018-11-26T02:35:44.605Z,5.40
2018-11-26T02:36:48.054Z,5.40
2018-11-26T02:37:53.221Z,5.40
2018-11-26T02:38:56.681Z,5.40
2018-11-26T02:40:00.145Z,5.40
2018-11-26T02:41:03.593Z,5.40
2018-11-26T02:42:07.044Z,5.40
2018-11-26T02:43:10.502Z,5.40
2018-11-26T02:44:13.940Z,5.30
2018-11-26T02:45:17.437Z,5.40
2018-11-26T02:46:20.876Z,5.40
2018-11-26T02:47:24.317Z,5.30
2018-11-26T02:48:27.801Z,5.30
2018-11-26T02:49:31.256Z,5.30
2018-11-26T02:50:34.771Z,5.30
2018-11-26T02:51:38.276Z,5.30
2018-11-26T02:52:41.754Z,5.30
2018-11-26T02:53:45.219Z,5.30
2018-11-26T02:54:48.685Z,5.30
2018-11-26T02:55:52.129Z,5.20
2018-11-26T02:56:55.609Z,5.20
2018-11-26T02:57:59.048Z,5.30
2018-11-26T02:59:02.489Z,5.30
2018-11-26T03:00:10.676Z,5.30
2018-11-26T03:01:14.113Z,5.30
2018-11-26T03:02:17.589Z,5.30
2018-11-26T03:03:21.056Z,5.40
2018-11-26T03:04:24.510Z,5.40
2018-11-26T03:05:29.362Z,5.40
2018-11-26T03:06:32.861Z,5.40
2018-11-26T03:07:36.398Z,5.40
2018-11-26T03:08:39.833Z,5.40
2018-11-26T03:09:43.290Z,5.40
2018-11-26T03:10:46.836Z,5.40
2018-11-26T03:11:50.277Z,5.40
2018-11-26T03:12:53.742Z,5.40
2018-11-26T03:13:57.225Z,5.40
2018-11-26T03:15:00.657Z,5.40
2018-11-26T03:16:04.142Z,5.40
2018-11-26T03:17:07.577Z,5.40
2018-11-26T03:18:11.125Z,5.40
2018-11-26T03:19:14.554Z,5.40
2018-11-26T03:20:17.985Z,5.40
2018-11-26T03:21:21.418Z,5.50
2018-11-26T03:22:24.859Z,5.50
2018-11-26T03:23:28.340Z,5.50
2018-11-26T03:24:31.774Z,5.40
2018-11-26T03:25:35.283Z,5.40
2018-11-26T03:26:38.745Z,5.40
2018-11-26T03:27:42.221Z,5.40
2018-11-26T03:28:45.671Z,5.40
2018-11-26T03:29:49.097Z,5.40
2018-11-26T03:30:52.573Z,5.40
2018-11-26T03:31:55.989Z,5.40
2018-11-26T03:32:59.497Z,5.40
2018-11-26T03:34:02.933Z,5.40
2018-11-26T03:35:07.944Z,5.40
2018-11-26T03:36:11.386Z,5.40
2018-11-26T03:37:14.821Z,5.50
2018-11-26T03:38:28.179Z,5.50
2018-11-26T03:39:34.681Z,5.50
2018-11-26T03:40:38.133Z,5.50
2018-11-26T03:41:41.589Z,5.50
2018-11-26T03:42:45.099Z,5.40
2018-11-26T03:43:48.564Z,5.40
2018-11-26T03:44:51.993Z,5.40
2018-11-26T03:45:55.476Z,5.40
2018-11-26T03:46:58.917Z,5.40
2018-11-26T03:48:02.360Z,5.40
2018-11-26T03:49:06.165Z,5.40
2018-11-26T03:50:10.381Z,5.40
2018-11-26T03:51:13.849Z,5.50
2018-11-26T03:52:17.300Z,5.50
2018-11-26T03:53:20.733Z,5.40
2018-11-26T03:54:24.224Z,5.50
2018-11-26T03:55:27.670Z,5.40
2018-11-26T03:56:31.181Z,5.40
2018-11-26T03:57:34.617Z,5.50
2018-11-26T03:58:38.157Z,5.50
2018-11-26T03:59:41.616Z,5.50
2018-11-26T04:00:45.069Z,5.50
2018-11-26T04:01:48.577Z,5.50
2018-11-26T04:02:51.999Z,5.50
2018-11-26T04:03:55.453Z,5.50
2018-11-26T04:04:58.939Z,5.50
2018-11-26T04:06:02.437Z,5.50
2018-11-26T04:07:06.425Z,5.50
2018-11-26T04:08:09.845Z,5.50
2018-11-26T04:09:13.298Z,5.60
2018-11-26T04:10:16.763Z,5.50
2018-11-26T04:11:20.185Z,5.60
2018-11-26T04:12:23.629Z,5.60
2018-11-26T04:13:27.057Z,5.60
2018-11-26T04:14:30.537Z,5.60
2018-11-26T04:15:34.024Z,5.60
2018-11-26T04:16:37.489Z,5.60
2018-11-26T04:17:40.944Z,5.60
2018-11-26T04:18:44.389Z,5.60
2018-11-26T04:19:47.812Z,5.60
2018-11-26T04:20:51.281Z,5.60
2018-11-26T04:21:54.709Z,5.60
2018-11-26T04:22:58.190Z,5.60
2018-11-26T04:24:01.673Z,5.60
2018-11-26T04:25:06.010Z,5.60
2018-11-26T04:26:09.444Z,5.60
2018-11-26T04:27:12.909Z,5.60
2018-11-26T04:28:16.333Z,5.60
2018-11-26T04:29:19.797Z,5.60
2018-11-26T04:30:23.281Z,5.60
2018-11-26T04:31:26.741Z,5.60
2018-11-26T04:32:30.220Z,5.60
2018-11-26T04:33:33.705Z,5.60
2018-11-26T04:34:37.182Z,5.60
2018-11-26T04:35:40.665Z,5.60
2018-11-26T04:36:44.114Z,5.50
2018-11-26T04:37:47.598Z,5.50
2018-11-26T04:38:51.089Z,5.60
2018-11-26T04:39:54.531Z,5.50
2018-11-26T04:40:58.002Z,5.50
2018-11-26T04:42:01.468Z,5.50
2018-11-26T04:43:04.948Z,5.50
2018-11-26T04:44:08.386Z,5.50
2018-11-26T04:45:11.857Z,5.50
2018-11-26T04:46:15.296Z,5.50
2018-11-26T04:47:18.774Z,5.40
2018-11-26T04:48:22.217Z,5.40
2018-11-26T04:49:25.658Z,5.40
2018-11-26T04:50:29.170Z,5.40
2018-11-26T04:51:33.289Z,5.40
2018-11-26T04:52:36.768Z,5.40
2018-11-26T04:53:40.225Z,5.40
2018-11-26T04:54:43.665Z,5.40
2018-11-26T04:55:47.097Z,5.40
2018-11-26T04:56:50.530Z,5.30
2018-11-26T04:57:53.993Z,5.40
2018-11-26T04:58:57.428Z,5.40
2018-11-26T05:00:00.898Z,5.40
2018-11-26T05:01:04.357Z,5.40
2018-11-26T05:02:07.782Z,5.40
2018-11-26T05:03:11.272Z,5.40
2018-11-26T05:04:14.834Z,5.50
2018-11-26T05:05:18.277Z,5.40
2018-11-26T05:06:21.727Z,5.50
2018-11-26T05:07:25.181Z,5.50
2018-11-26T05:08:28.694Z,5.50
2018-11-26T05:09:32.129Z,5.50
2018-11-26T05:10:35.553Z,5.60
2018-11-26T05:11:39.054Z,5.60
2018-11-26T05:12:42.521Z,5.60
2018-11-26T05:13:45.965Z,5.70
2018-11-26T05:14:49.394Z,5.70
2018-11-26T05:15:52.877Z,5.70
2018-11-26T05:16:56.317Z,5.70
2018-11-26T05:17:59.785Z,5.70
2018-11-26T05:19:03.234Z,5.70
2018-11-26T05:20:09.184Z,5.60
2018-11-26T05:21:12.645Z,5.60
2018-11-26T05:22:16.161Z,5.60
2018-11-26T05:23:19.587Z,5.60
2018-11-26T05:24:23.035Z,5.60
2018-11-26T05:25:26.488Z,5.60
2018-11-26T05:26:29.911Z,5.60
2018-11-26T05:27:33.373Z,5.60
2018-11-26T05:28:36.819Z,5.60
2018-11-26T05:29:40.310Z,5.60
2018-11-26T05:30:43.759Z,5.60
2018-11-26T05:31:47.274Z,5.60
2018-11-26T05:32:50.745Z,5.60
2018-11-26T05:33:54.161Z,5.50
2018-11-26T05:34:57.651Z,5.50
2018-11-26T05:36:01.126Z,5.50
2018-11-26T05:37:04.689Z,5.60
2018-11-26T05:38:08.117Z,5.60
2018-11-26T05:39:11.574Z,5.60
2018-11-26T05:40:15.313Z,5.60
2018-11-26T05:41:18.766Z,5.60
2018-11-26T05:42:28.690Z,5.60
2018-11-26T05:43:25.693Z,5.60
2018-11-26T05:44:29.124Z,5.60
2018-11-26T05:45:32.602Z,5.60
2018-11-26T05:46:36.081Z,5.50
2018-11-26T05:47:39.576Z,5.40
2018-11-26T05:48:43.152Z,5.50
2018-11-26T05:49:46.585Z,5.40
2018-11-26T05:50:50.037Z,5.40
2018-11-26T05:51:53.748Z,5.50
2018-11-26T05:52:57.202Z,5.40
2018-11-26T05:54:00.676Z,5.40
2018-11-26T05:55:04.142Z,5.40
2018-11-26T05:56:07.581Z,5.50
2018-11-26T05:57:11.110Z,5.50
2018-11-26T05:58:14.566Z,5.50
2018-11-26T05:59:17.992Z,5.50
2018-11-26T06:00:25.011Z,5.50
2018-11-26T06:01:28.434Z,5.50
2018-11-26T06:02:31.893Z,5.50
2018-11-26T06:03:35.369Z,5.50
2018-11-26T06:04:38.797Z,5.50
2018-11-26T06:05:42.229Z,5.60
2018-11-26T06:06:45.740Z,5.60
2018-11-26T06:07:49.166Z,5.60
2018-11-26T06:08:52.618Z,5.60
2018-11-26T06:09:56.094Z,5.60
2018-11-26T06:10:59.553Z,5.70
2018-11-26T06:12:02.998Z,5.70
2018-11-26T06:13:06.677Z,5.60
2018-11-26T06:14:10.113Z,5.60
2018-11-26T06:15:13.907Z,5.50
2018-11-26T06:16:17.370Z,5.60
2018-11-26T06:17:20.834Z,5.60
2018-11-26T06:18:24.286Z,5.50
2018-11-26T06:19:27.753Z,5.40
2018-11-26T06:20:31.249Z,5.50
2018-11-26T06:21:34.725Z,5.50
2018-11-26T06:22:38.216Z,5.50
2018-11-26T06:23:41.660Z,5.50
2018-11-26T06:24:45.142Z,5.50
2018-11-26T06:25:48.601Z,5.50
2018-11-26T06:26:52.094Z,5.40
2018-11-26T06:27:55.583Z,5.40
2018-11-26T06:28:59.081Z,5.30
2018-11-26T06:30:02.522Z,5.30
2018-11-26T06:31:06.432Z,5.20
2018-11-26T06:32:09.881Z,5.20
2018-11-26T06:33:13.334Z,5.10
2018-11-26T06:34:16.760Z,5.10
2018-11-26T06:35:21.489Z,5.10
2018-11-26T06:36:24.976Z,5.10
2018-11-26T06:37:28.408Z,5.10
2018-11-26T06:38:31.845Z,5.00
2018-11-26T06:39:35.334Z,5.10
2018-11-26T06:40:38.886Z,5.10
2018-11-26T06:41:42.348Z,5.10
2018-11-26T06:42:45.888Z,5.10
2018-11-26T06:43:49.343Z,5.10
2018-11-26T06:44:52.773Z,5.20
2018-11-26T06:45:56.257Z,5.20
2018-11-26T06:46:59.701Z,5.20
2018-11-26T06:48:03.159Z,5.20
2018-11-26T06:49:06.617Z,5.20
2018-11-26T06:50:11.766Z,5.20
2018-11-26T06:51:15.206Z,5.20
2018-11-26T06:52:18.686Z,5.20
2018-11-26T06:53:22.120Z,5.20
2018-11-26T06:54:25.549Z,5.20
2018-11-26T06:55:29.037Z,5.30
2018-11-26T06:56:32.477Z,5.30
2018-11-26T06:57:35.929Z,5.20
2018-11-26T06:58:39.368Z,5.20
2018-11-26T06:59:42.833Z,5.20
2018-11-26T07:00:46.332Z,5.20
2018-11-26T07:01:49.814Z,5.20
2018-11-26T07:02:53.302Z,5.20
2018-11-26T07:03:56.785Z,5.20
2018-11-26T07:05:00.204Z,5.10
2018-11-26T07:06:03.688Z,5.10
2018-11-26T07:07:07.155Z,5.10
2018-11-26T07:08:10.609Z,5.10
2018-11-26T07:09:14.099Z,5.10
2018-11-26T07:10:18.284Z,5.10
2018-11-26T07:11:21.740Z,5.10
2018-11-26T07:12:25.189Z,5.10
2018-11-26T07:13:28.617Z,5.10
2018-11-26T07:14:32.092Z,5.10
2018-11-26T07:15:35.580Z,5.20
2018-11-26T07:16:39.036Z,5.20
2018-11-26T07:17:42.560Z,5.20
2018-11-26T07:18:45.993Z,5.20
2018-11-26T07:19:49.459Z,5.20
2018-11-26T07:20:52.920Z,5.20
2018-11-26T07:21:56.373Z,5.30
2018-11-26T07:22:59.854Z,5.30
2018-11-26T07:24:03.306Z,5.30
2018-11-26T07:25:09.218Z,5.30
2018-11-26T07:26:12.663Z,5.20
2018-11-26T07:27:16.137Z,5.30
2018-11-26T07:28:19.598Z,5.30
2018-11-26T07:29:24.318Z,5.30
2018-11-26T07:30:27.992Z,5.30
2018-11-26T07:31:31.527Z,5.30
2018-11-26T07:32:35.001Z,5.30
2018-11-26T07:33:38.469Z,5.30
2018-11-26T07:34:41.912Z,5.20
2018-11-26T07:35:45.349Z,5.30
2018-11-26T07:36:48.797Z,5.20
2018-11-26T07:37:52.225Z,5.20
2018-11-26T07:38:55.732Z,5.20
2018-11-26T07:39:59.181Z,5.30
2018-11-26T07:41:02.634Z,5.20
2018-11-26T07:42:07.068Z,5.20
2018-11-26T07:43:12.488Z,5.20
2018-11-26T07:44:15.948Z,5.20
2018-11-26T07:45:19.452Z,5.20
2018-11-26T07:46:22.953Z,5.20
2018-11-26T07:47:26.433Z,5.20
2018-11-26T07:48:29.889Z,5.20
2018-11-26T07:49:33.357Z,5.20
2018-11-26T07:50:37.221Z,5.20
2018-11-26T07:51:40.687Z,5.20
2018-11-26T07:52:44.153Z,5.20
2018-11-26T07:53:47.641Z,5.30
2018-11-26T07:54:51.102Z,5.30
2018-11-26T07:55:54.555Z,5.30
2018-11-26T07:56:57.994Z,5.30
2018-11-26T07:58:01.458Z,5.30
2018-11-26T07:59:05.288Z,5.20
2018-11-26T08:00:10.598Z,5.20
2018-11-26T08:01:14.057Z,5.20
2018-11-26T08:02:17.510Z,5.30
2018-11-26T08:03:20.946Z,5.30
2018-11-26T08:04:24.452Z,5.30
2018-11-26T08:05:27.954Z,5.30
2018-11-26T08:06:31.425Z,5.30
2018-11-26T08:07:34.910Z,5.30
2018-11-26T08:08:38.357Z,5.30
2018-11-26T08:09:42.372Z,5.30
2018-11-26T08:10:45.301Z,5.40
2018-11-26T08:11:48.785Z,5.30
2018-11-26T08:12:54.015Z,5.30
2018-11-26T08:13:57.469Z,5.30
2018-11-26T08:15:00.921Z,5.40
2018-11-26T08:16:04.408Z,5.40
2018-11-26T08:17:07.853Z,5.40
2018-11-26T08:18:11.325Z,5.40
2018-11-26T08:19:14.792Z,5.40
2018-11-26T08:20:18.334Z,5.40
2018-11-26T08:21:21.857Z,5.40
2018-11-26T08:22:25.306Z,5.30
2018-11-26T08:23:28.773Z,5.30
2018-11-26T08:24:32.221Z,5.30
2018-11-26T08:25:35.657Z,5.30
2018-11-26T08:26:39.134Z,5.30
2018-11-26T08:27:43.530Z,5.30
2018-11-26T08:28:46.980Z,5.40
2018-11-26T08:29:50.433Z,5.40
2018-11-26T08:30:53.889Z,5.40
2018-11-26T08:31:57.437Z,5.30
2018-11-26T08:33:01.523Z,5.20
2018-11-26T08:34:05.261Z,5.20
2018-11-26T08:35:09.609Z,5.20
2018-11-26T08:36:13.103Z,5.20
2018-11-26T08:37:18.988Z,5.20
2018-11-26T08:38:28.653Z,5.20
2018-11-26T08:39:36.031Z,5.20
2018-11-26T08:40:44.250Z,5.20
2018-11-26T08:41:52.641Z,5.30
2018-11-26T08:43:02.834Z,5.20
2018-11-26T08:44:12.445Z,5.30
2018-11-26T08:45:25.130Z,5.20
2018-11-26T08:46:37.591Z,5.20
2018-11-26T08:47:42.887Z,5.20
2018-11-26T08:48:52.785Z,5.10
2018-11-26T08:49:56.253Z,5.20
2018-11-26T08:51:02.810Z,5.20
2018-11-26T08:52:06.258Z,5.10
2018-11-26T08:53:09.737Z,5.00
2018-11-26T08:54:13.278Z,5.10
2018-11-26T08:55:17.016Z,5.10
2018-11-26T08:56:20.222Z,5.10
2018-11-26T08:57:23.676Z,5.10
2018-11-26T08:58:27.203Z,5.10
2018-11-26T08:59:30.660Z,5.00
2018-11-26T09:00:34.157Z,5.00
2018-11-26T09:01:42.546Z,5.00
2018-11-26T09:02:53.068Z,5.00
2018-11-26T09:03:56.585Z,5.00
2018-11-26T09:05:23.913Z,4.90
2018-11-26T09:06:23.299Z,4.90
2018-11-26T09:07:26.862Z,4.90
2018-11-26T09:08:34.401Z,4.90
2018-11-26T09:09:37.844Z,4.90
2018-11-26T09:10:41.357Z,4.90
2018-11-26T09:11:44.817Z,4.90
2018-11-26T09:12:48.269Z,4.90
2018-11-26T09:13:51.706Z,4.90
2018-11-26T09:14:56.099Z,4.90
2018-11-26T09:15:59.554Z,4.90
2018-11-26T09:17:02.992Z,4.90
2018-11-26T09:18:06.477Z,4.90
2018-11-26T09:19:09.906Z,4.90
2018-11-26T09:20:13.346Z,4.90
2018-11-26T09:21:16.842Z,4.80
2018-11-26T09:22:20.262Z,4.80
2018-11-26T09:23:23.696Z,4.80
2018-11-26T09:24:27.152Z,4.70
2018-11-26T09:25:30.598Z,4.80
2018-11-26T09:26:34.061Z,4.80
2018-11-26T09:27:37.500Z,4.80
2018-11-26T09:28:41.010Z,4.80
2018-11-26T09:29:44.445Z,4.70
2018-11-26T09:30:47.901Z,4.70
2018-11-26T09:31:51.347Z,4.70
2018-11-26T09:32:54.797Z,4.60
2018-11-26T09:33:58.270Z,4.60
2018-11-26T09:35:01.721Z,4.60
2018-11-26T09:36:05.188Z,4.60
2018-11-26T09:37:08.619Z,4.70
2018-11-26T09:38:13.112Z,4.60
2018-11-26T09:39:15.729Z,4.70
2018-11-26T09:40:19.208Z,4.70
2018-11-26T09:41:22.644Z,4.80
2018-11-26T09:42:26.107Z,4.80
2018-11-26T09:43:29.568Z,4.80
2018-11-26T09:44:33.005Z,4.90
2018-11-26T09:45:40.535Z,4.90
2018-11-26T09:46:40.041Z,5.00
2018-11-26T09:47:43.527Z,5.00
2018-11-26T09:48:47.052Z,4.90
2018-11-26T09:49:50.493Z,5.00
2018-11-26T09:50:53.993Z,5.00
2018-11-26T09:51:57.473Z,5.00
2018-11-26T09:53:00.918Z,5.10
2018-11-26T09:54:04.402Z,5.10
2018-11-26T09:55:08.200Z,5.10
2018-11-26T09:56:11.674Z,5.20
2018-11-26T09:57:15.181Z,5.20
2018-11-26T09:58:18.620Z,5.20
2018-11-26T09:59:22.100Z,5.30
2018-11-26T10:00:25.557Z,5.30
2018-11-26T10:01:29.052Z,5.30
2018-11-26T10:02:32.497Z,5.30
2018-11-26T10:03:35.952Z,5.40
2018-11-26T10:04:39.388Z,5.40
2018-11-26T10:05:42.866Z,5.40
2018-11-26T10:06:46.404Z,5.40
2018-11-26T10:07:49.884Z,5.40
2018-11-26T10:08:53.388Z,5.40
2018-11-26T10:09:56.846Z,5.50
2018-11-26T10:11:00.324Z,5.50
2018-11-26T10:12:03.777Z,5.50
2018-11-26T10:13:07.497Z,5.50
2018-11-26T10:14:10.989Z,5.50
2018-11-26T10:15:22.497Z,5.50
2018-11-26T10:16:25.984Z,5.50
2018-11-26T10:17:29.466Z,5.40
2018-11-26T10:18:32.916Z,5.40
2018-11-26T10:19:36.382Z,5.40
2018-11-26T10:20:39.836Z,5.40
2018-11-26T10:21:43.285Z,5.40
2018-11-26T10:22:47.294Z,5.40
2018-11-26T10:23:50.791Z,5.50
2018-11-26T10:24:54.270Z,5.50
2018-11-26T10:25:57.727Z,5.60
2018-11-26T10:27:01.189Z,5.70
2018-11-26T10:28:04.645Z,5.70
2018-11-26T10:29:08.124Z,5.70
2018-11-26T10:30:13.462Z,5.70
2018-11-26T10:31:16.917Z,5.70
2018-11-26T10:32:20.366Z,5.60
2018-11-26T10:33:23.813Z,5.60
2018-11-26T10:34:27.270Z,5.70
2018-11-26T10:35:30.714Z,5.70
2018-11-26T10:36:34.210Z,5.70
2018-11-26T10:37:37.802Z,5.70
2018-11-26T10:38:41.251Z,5.80
2018-11-26T10:39:44.701Z,5.80
2018-11-26T10:40:48.172Z,5.80
2018-11-26T10:41:51.622Z,5.70
2018-11-26T10:42:55.101Z,5.70
2018-11-26T10:43:58.552Z,5.70
2018-11-26T10:45:02.021Z,5.70
2018-11-26T10:46:05.482Z,5.80
2018-11-26T10:47:08.949Z,5.80
2018-11-26T10:48:12.393Z,5.80
2018-11-26T10:49:15.861Z,5.90
2018-11-26T10:50:20.849Z,5.90
2018-11-26T10:51:24.312Z,5.80
2018-11-26T10:52:27.803Z,5.80
2018-11-26T10:53:31.286Z,5.80
2018-11-26T10:54:34.721Z,5.80
2018-11-26T10:55:38.173Z,5.80
2018-11-26T10:56:41.601Z,5.90
2018-11-26T10:57:45.045Z,5.90
2018-11-26T10:58:48.469Z,5.80
2018-11-26T10:59:51.905Z,5.60
2018-11-26T11:00:58.836Z,5.70
2018-11-26T11:02:06.488Z,5.60
2018-11-26T11:03:09.935Z,5.60
2018-11-26T11:04:13.443Z,5.60
2018-11-26T11:05:16.916Z,5.60
2018-11-26T11:06:20.393Z,5.70
2018-11-26T11:07:23.841Z,5.70
2018-11-26T11:08:30.133Z,5.60
2018-11-26T11:09:33.598Z,5.70
2018-11-26T11:10:37.098Z,5.70
2018-11-26T11:11:40.581Z,5.60
2018-11-26T11:12:44.020Z,5.60
2018-11-26T11:13:47.460Z,5.60
2018-11-26T11:14:50.901Z,5.60
2018-11-26T11:15:54.321Z,5.60
2018-11-26T11:16:57.843Z,5.60
2018-11-26T11:18:01.292Z,5.60
2018-11-26T11:19:04.765Z,5.60
2018-11-26T11:20:12.716Z,5.60
2018-11-26T11:21:16.189Z,5.60
2018-11-26T11:22:19.645Z,5.60
2018-11-26T11:23:23.071Z,5.50
2018-11-26T11:24:26.524Z,5.40
2018-11-26T11:25:29.973Z,5.40
2018-11-26T11:26:33.489Z,5.30
2018-11-26T11:27:36.933Z,5.30
2018-11-26T11:28:40.384Z,5.30
2018-11-26T11:29:43.870Z,5.20
2018-11-26T11:30:47.304Z,5.20
2018-11-26T11:31:50.756Z,5.10
2018-11-26T11:32:54.271Z,5.00
2018-11-26T11:33:57.719Z,4.80
2018-11-26T11:35:01.206Z,4.80
2018-11-26T11:36:04.705Z,4.70
2018-11-26T11:37:08.170Z,4.80
2018-11-26T11:38:11.663Z,4.80
2018-11-26T11:39:15.118Z,4.80
2018-11-26T11:40:26.471Z,4.80
2018-11-26T11:41:34.115Z,4.80
2018-11-26T11:42:33.442Z,4.70
2018-11-26T11:43:36.887Z,4.70
2018-11-26T11:44:40.390Z,4.50
2018-11-26T11:45:43.845Z,4.50
2018-11-26T11:46:47.330Z,4.40
2018-11-26T11:47:50.827Z,4.40
2018-11-26T11:48:54.276Z,4.40
2018-11-26T11:49:57.729Z,4.40
2018-11-26T11:51:01.173Z,4.40
2018-11-26T11:52:04.931Z,4.40
2018-11-26T11:53:08.438Z,4.40
2018-11-26T11:54:11.987Z,4.50
2018-11-26T11:55:17.515Z,4.50
2018-11-26T11:56:21.005Z,4.60
2018-11-26T11:57:24.442Z,4.60
2018-11-26T11:58:27.898Z,4.50
2018-11-26T11:59:31.347Z,4.60
2018-11-26T12:00:38.051Z,4.60
2018-11-26T12:01:41.533Z,4.60
2018-11-26T12:02:45.041Z,4.60
2018-11-26T12:03:48.503Z,4.70
2018-11-26T12:04:52.002Z,4.50
2018-11-26T12:05:55.448Z,4.50
2018-11-26T12:06:58.895Z,4.40
2018-11-26T12:08:02.457Z,4.30
2018-11-26T12:09:08.914Z,4.40
2018-11-26T12:10:12.754Z,4.30
2018-11-26T12:11:16.298Z,4.30
2018-11-26T12:12:19.731Z,4.30
2018-11-26T12:13:23.183Z,4.30
2018-11-26T12:14:26.637Z,4.30
2018-11-26T12:15:30.126Z,4.30
2018-11-26T12:16:33.601Z,4.40
2018-11-26T12:17:37.043Z,4.50
2018-11-26T12:18:40.524Z,4.50
2018-11-26T12:19:44.006Z,4.60
2018-11-26T12:20:47.477Z,4.60
2018-11-26T12:21:50.986Z,4.70
2018-11-26T12:22:54.475Z,4.70
2018-11-26T12:23:57.963Z,4.70
2018-11-26T12:25:01.448Z,4.80
2018-11-26T12:26:05.225Z,4.80
2018-11-26T12:27:08.659Z,4.70
2018-11-26T12:28:12.123Z,4.70
2018-11-26T12:29:15.615Z,4.70
2018-11-26T12:30:23.198Z,4.60
2018-11-26T12:31:26.670Z,4.50
2018-11-26T12:32:30.140Z,4.50
2018-11-26T12:33:33.591Z,4.40
2018-11-26T12:34:37.174Z,4.50
2018-11-26T12:35:40.626Z,4.50
2018-11-26T12:36:44.064Z,4.50
2018-11-26T12:37:47.539Z,4.60
2018-11-26T12:38:51.041Z,4.60
2018-11-26T12:39:54.482Z,4.50
2018-11-26T12:40:57.931Z,4.50
2018-11-26T12:42:04.180Z,4.40
2018-11-26T12:43:05.550Z,4.40
2018-11-26T12:44:09.070Z,4.40
2018-11-26T12:45:24.702Z,4.50
2018-11-26T12:46:28.149Z,4.50
2018-11-26T12:47:31.620Z,4.50
2018-11-26T12:48:35.075Z,4.50
2018-11-26T12:49:38.538Z,4.50
2018-11-26T12:50:42.026Z,4.50
2018-11-26T12:51:45.492Z,4.60
2018-11-26T12:52:48.981Z,4.60
2018-11-26T12:53:52.430Z,4.60
2018-11-26T12:54:55.891Z,4.60
2018-11-26T12:55:59.378Z,4.70
2018-11-26T12:57:02.836Z,4.60
2018-11-26T12:58:07.536Z,4.70
2018-11-26T12:59:10.982Z,4.80
2018-11-26T13:00:19.540Z,4.70
2018-11-26T13:01:23.050Z,4.80
2018-11-26T13:02:26.516Z,4.70
2018-11-26T13:03:29.981Z,4.80
2018-11-26T13:04:33.490Z,4.70
2018-11-26T13:05:36.960Z,4.70
2018-11-26T13:06:40.419Z,4.70
2018-11-26T13:07:43.911Z,4.60
2018-11-26T13:08:47.425Z,4.70
2018-11-26T13:09:50.934Z,4.70
2018-11-26T13:10:54.463Z,4.80
2018-11-26T13:11:57.928Z,4.70
2018-11-26T13:13:01.412Z,4.70
2018-11-26T13:14:05.150Z,4.70
2018-11-26T13:15:11.899Z,4.70
2018-11-26T13:16:15.338Z,4.60
2018-11-26T13:17:18.820Z,4.60
2018-11-26T13:18:22.295Z,4.70
2018-11-26T13:19:25.751Z,4.70
2018-11-26T13:20:30.347Z,4.70
2018-11-26T13:21:33.806Z,4.70
2018-11-26T13:22:37.299Z,4.70
2018-11-26T13:23:40.760Z,4.60
2018-11-26T13:24:44.214Z,4.70
2018-11-26T13:25:47.738Z,4.60
2018-11-26T13:26:51.199Z,4.60
2018-11-26T13:27:56.554Z,4.60
2018-11-26T13:29:00.033Z,4.50
2018-11-26T13:30:04.143Z,4.40
2018-11-26T13:31:07.696Z,4.50
2018-11-26T13:32:11.138Z,4.60
2018-11-26T13:33:16.562Z,4.60
2018-11-26T13:34:20.030Z,4.50
2018-11-26T13:35:23.485Z,4.50
2018-11-26T13:36:26.947Z,4.50
2018-11-26T13:37:30.481Z,4.60
2018-11-26T13:38:33.947Z,4.50
2018-11-26T13:39:37.397Z,4.60
2018-11-26T13:40:40.841Z,4.60
2018-11-26T13:41:44.324Z,4.50
2018-11-26T13:42:47.863Z,4.50
2018-11-26T13:43:51.342Z,4.50
2018-11-26T13:44:54.783Z,4.50
2018-11-26T13:45:58.222Z,4.50
2018-11-26T13:47:01.717Z,4.50
2018-11-26T13:48:06.982Z,4.50
2018-11-26T13:49:10.421Z,4.40
2018-11-26T13:50:18.640Z,4.50
2018-11-26T13:51:22.098Z,4.50
2018-11-26T13:52:25.536Z,4.50
2018-11-26T13:53:29.022Z,4.50
2018-11-26T13:54:32.466Z,4.60
2018-11-26T13:55:35.959Z,4.60
2018-11-26T13:56:39.411Z,4.50
2018-11-26T13:57:42.848Z,4.60
2018-11-26T13:58:46.385Z,4.60
2018-11-26T13:59:49.825Z,4.60
2018-11-26T14:00:53.253Z,4.60
2018-11-26T14:01:56.691Z,4.50
2018-11-26T14:03:00.146Z,4.50
2018-11-26T14:04:03.622Z,4.50
2018-11-26T14:05:08.822Z,4.50
2018-11-26T14:06:12.275Z,4.50
2018-11-26T14:07:15.793Z,4.50
2018-11-26T14:08:19.256Z,4.50
2018-11-26T14:09:22.742Z,4.50